KPBG

Plattsburgh International Airport

Plattsburgh, New York, USA
METAR KPBG 150053Z AUTO 27003KT 10SM CLR 21/20 A2979 RMK AO2 SLP085 T02110200
Observed Flight Rules
Aug-15 @ 00:53 UTC (12 minutes ago) Visual Flight Rules
Wind Visibility Clouds
270° at 3 knots 10 miles
  • Clear skies
Temperatures Readings
Current 21°C / 70°F
Dewpoint 20°C / 68°F
Humidity 94%
Altimeter 29.79" Hg
Pressure 1008.5 hPa
Elevation 72
METAR KPBG 150053Z AUTO 27003KT 10SM CLR 21/20 A2979 RMK AO2 SLP085 T02110200
Observed Flight Rules
Aug-15 @ 00:53 UTC
(12 minutes ago)
VFR
Wind Visibility
270° at 3 knots 10 miles
Clouds
  • Clear skies
Temperature Dewpoint
21°C / 70°F 20°C / 68°F
Humidity Altimeter Pressure
94% 29.79" Hg 1008.5 hPa